sensor_id;sensor_type;location;lat;lon;timestamp;temperature;humidity
1538;DHT22;12022;52.266;10.522;2022-10-16T00:01:11;16.00;99.90
1538;DHT22;12022;52.266;10.522;2022-10-16T00:03:40;15.90;99.90
1538;DHT22;12022;52.266;10.522;2022-10-16T00:06:08;15.90;99.90
1538;DHT22;12022;52.266;10.522;2022-10-16T00:08:36;15.90;99.90
1538;DHT22;12022;52.266;10.522;2022-10-16T00:11:15;15.90;99.90
1538;DHT22;12022;52.266;10.522;2022-10-16T00:13:43;15.80;99.90
1538;DHT22;12022;52.266;10.522;2022-10-16T00:16:11;15.80;99.90
1538;DHT22;12022;52.266;10.522;2022-10-16T00:18:42;15.80;99.90
1538;DHT22;12022;52.266;10.522;2022-10-16T00:21:12;15.80;99.90
1538;DHT22;12022;52.266;10.522;2022-10-16T00:23:40;15.80;99.90
1538;DHT22;12022;52.266;10.522;2022-10-16T00:26:10;15.80;99.90
1538;DHT22;12022;52.266;10.522;2022-10-16T00:28:40;15.70;99.90
1538;DHT22;12022;52.266;10.522;2022-10-16T00:31:10;15.70;99.90
1538;DHT22;12022;52.266;10.522;2022-10-16T00:33:38;15.70;99.90
1538;DHT22;12022;52.266;10.522;2022-10-16T00:36:07;15.70;99.90
1538;DHT22;12022;52.266;10.522;2022-10-16T00:38:34;15.70;99.90
1538;DHT22;12022;52.266;10.522;2022-10-16T00:41:01;15.60;99.90
1538;DHT22;12022;52.266;10.522;2022-10-16T00:46:39;15.60;99.90
1538;DHT22;12022;52.266;10.522;2022-10-16T00:49:14;15.60;99.90
1538;DHT22;12022;52.266;10.522;2022-10-16T00:51:49;15.60;99.90
1538;DHT22;12022;52.266;10.522;2022-10-16T00:54:20;15.60;99.90
1538;DHT22;12022;52.266;10.522;2022-10-16T00:56:48;15.60;99.90
1538;DHT22;12022;52.266;10.522;2022-10-16T00:59:23;15.60;99.90
1538;DHT22;12022;52.266;10.522;2022-10-16T01:01:52;15.70;99.90
1538;DHT22;12022;52.266;10.522;2022-10-16T01:04:19;15.60;99.90
1538;DHT22;12022;52.266;10.522;2022-10-16T01:14:58;15.80;99.90
1538;DHT22;12022;52.266;10.522;2022-10-16T01:20:42;15.80;99.90
1538;DHT22;12022;52.266;10.522;2022-10-16T01:23:18;15.80;99.90
1538;DHT22;12022;52.266;10.522;2022-10-16T01:29:18;15.80;99.90
1538;DHT22;12022;52.266;10.522;2022-10-16T01:31:52;15.80;99.90
1538;DHT22;12022;52.266;10.522;2022-10-16T01:34:35;15.70;99.90
1538;DHT22;12022;52.266;10.522;2022-10-16T01:37:09;15.70;99.90
1538;DHT22;12022;52.266;10.522;2022-10-16T01:39:39;15.70;99.90
1538;DHT22;12022;52.266;10.522;2022-10-16T01:42:19;15.70;99.90
1538;DHT22;12022;52.266;10.522;2022-10-16T01:44:48;15.70;99.90
1538;DHT22;12022;52.266;10.522;2022-10-16T01:47:17;15.70;99.90
1538;DHT22;12022;52.266;10.522;2022-10-16T01:49:46;15.60;99.90
1538;DHT22;12022;52.266;10.522;2022-10-16T01:52:17;15.60;99.90
1538;DHT22;12022;52.266;10.522;2022-10-16T01:54:46;15.60;99.90
1538;DHT22;12022;52.266;10.522;2022-10-16T01:57:16;15.60;99.90
1538;DHT22;12022;52.266;10.522;2022-10-16T01:59:47;15.60;99.90
1538;DHT22;12022;52.266;10.522;2022-10-16T02:02:17;15.50;99.90
1538;DHT22;12022;52.266;10.522;2022-10-16T02:04:53;15.50;99.90
1538;DHT22;12022;52.266;10.522;2022-10-16T02:07:20;15.50;99.90
1538;DHT22;12022;52.266;10.522;2022-10-16T02:09:47;15.50;99.90
1538;DHT22;12022;52.266;10.522;2022-10-16T02:12:21;15.50;99.90
1538;DHT22;12022;52.266;10.522;2022-10-16T02:14:50;15.50;99.90
1538;DHT22;12022;52.266;10.522;2022-10-16T02:17:18;15.50;99.90
1538;DHT22;12022;52.266;10.522;2022-10-16T02:19:46;15.60;99.90
1538;DHT22;12022;52.266;10.522;2022-10-16T02:22:38;15.60;99.90
1538;DHT22;12022;52.266;10.522;2022-10-16T02:25:26;15.60;99.90
1538;DHT22;12022;52.266;10.522;2022-10-16T02:28:07;15.60;99.90
1538;DHT22;12022;52.266;10.522;2022-10-16T02:30:45;15.60;99.90
1538;DHT22;12022;52.266;10.522;2022-10-16T02:33:16;15.60;99.90
1538;DHT22;12022;52.266;10.522;2022-10-16T02:35:45;15.60;99.90
1538;DHT22;12022;52.266;10.522;2022-10-16T02:38:15;15.60;99.90
1538;DHT22;12022;52.266;10.522;2022-10-16T02:40:42;15.70;99.90
1538;DHT22;12022;52.266;10.522;2022-10-16T02:43:10;15.70;99.90
1538;DHT22;12022;52.266;10.522;2022-10-16T02:45:37;15.70;99.90
1538;DHT22;12022;52.266;10.522;2022-10-16T02:48:04;15.80;99.90
1538;DHT22;12022;52.266;10.522;2022-10-16T02:50:31;15.80;99.90
1538;DHT22;12022;52.266;10.522;2022-10-16T02:52:58;15.70;99.90
1538;DHT22;12022;52.266;10.522;2022-10-16T02:55:25;15.80;99.90
1538;DHT22;12022;52.266;10.522;2022-10-16T02:57:52;15.80;99.90
1538;DHT22;12022;52.266;10.522;2022-10-16T03:00:20;15.70;99.90
1538;DHT22;12022;52.266;10.522;2022-10-16T03:02:47;15.70;99.90
1538;DHT22;12022;52.266;10.522;2022-10-16T03:05:14;15.60;99.90
1538;DHT22;12022;52.266;10.522;2022-10-16T03:07:42;15.60;99.90
1538;DHT22;12022;52.266;10.522;2022-10-16T03:10:09;15.60;99.90
1538;DHT22;12022;52.266;10.522;2022-10-16T03:12:36;15.60;99.90
1538;DHT22;12022;52.266;10.522;2022-10-16T03:15:03;15.60;99.90
1538;DHT22;12022;52.266;10.522;2022-10-16T03:17:31;15.60;99.90
1538;DHT22;12022;52.266;10.522;2022-10-16T03:19:58;15.60;99.90
1538;DHT22;12022;52.266;10.522;2022-10-16T03:22:25;15.60;99.90
1538;DHT22;12022;52.266;10.522;2022-10-16T03:24:52;15.50;99.90
1538;DHT22;12022;52.266;10.522;2022-10-16T03:27:19;15.50;99.90
1538;DHT22;12022;52.266;10.522;2022-10-16T03:29:46;15.50;99.90
1538;DHT22;12022;52.266;10.522;2022-10-16T03:32:13;15.50;99.90
1538;DHT22;12022;52.266;10.522;2022-10-16T03:34:40;15.40;99.90
1538;DHT22;12022;52.266;10.522;2022-10-16T03:37:07;15.40;99.90
1538;DHT22;12022;52.266;10.522;2022-10-16T03:39:34;15.30;99.90
1538;DHT22;12022;52.266;10.522;2022-10-16T03:42:00;15.30;99.90
1538;DHT22;12022;52.266;10.522;2022-10-16T03:44:27;15.20;99.90
1538;DHT22;12022;52.266;10.522;2022-10-16T03:46:54;15.20;99.90
1538;DHT22;12022;52.266;10.522;2022-10-16T03:49:21;15.20;99.90
1538;DHT22;12022;52.266;10.522;2022-10-16T03:51:48;15.20;99.90
1538;DHT22;12022;52.266;10.522;2022-10-16T03:54:15;15.10;99.90
1538;DHT22;12022;52.266;10.522;2022-10-16T03:56:42;15.10;99.90
1538;DHT22;12022;52.266;10.522;2022-10-16T03:59:09;15.10;99.90
1538;DHT22;12022;52.266;10.522;2022-10-16T04:01:36;15.10;99.90
1538;DHT22;12022;52.266;10.522;2022-10-16T04:04:03;15.00;99.90
1538;DHT22;12022;52.266;10.522;2022-10-16T04:06:30;15.00;99.90
1538;DHT22;12022;52.266;10.522;2022-10-16T04:08:57;15.00;99.90
1538;DHT22;12022;52.266;10.522;2022-10-16T04:11:24;14.90;99.90
1538;DHT22;12022;52.266;10.522;2022-10-16T04:13:51;14.90;99.90
1538;DHT22;12022;52.266;10.522;2022-10-16T04:16:18;14.90;99.90
1538;DHT22;12022;52.266;10.522;2022-10-16T04:18:44;14.80;99.90
1538;DHT22;12022;52.266;10.522;2022-10-16T04:21:11;14.80;99.90
1538;DHT22;12022;52.266;10.522;2022-10-16T04:23:38;14.80;99.90
1538;DHT22;12022;52.266;10.522;2022-10-16T04:26:05;14.90;99.90
1538;DHT22;12022;52.266;10.522;2022-10-16T04:28:32;14.80;99.90
1538;DHT22;12022;52.266;10.522;2022-10-16T04:30:59;14.90;99.90
1538;DHT22;12022;52.266;10.522;2022-10-16T04:33:26;14.90;99.90
1538;DHT22;12022;52.266;10.522;2022-10-16T04:35:57;14.90;99.90
1538;DHT22;12022;52.266;10.522;2022-10-16T04:38:25;14.90;99.90
1538;DHT22;12022;52.266;10.522;2022-10-16T04:40:52;14.90;99.90
1538;DHT22;12022;52.266;10.522;2022-10-16T04:43:20;14.90;99.90
1538;DHT22;12022;52.266;10.522;2022-10-16T04:45:47;14.90;99.90
1538;DHT22;12022;52.266;10.522;2022-10-16T04:48:14;14.90;99.90
1538;DHT22;12022;52.266;10.522;2022-10-16T04:50:41;14.90;99.90
1538;DHT22;12022;52.266;10.522;2022-10-16T04:53:08;14.80;99.90
1538;DHT22;12022;52.266;10.522;2022-10-16T04:55:35;14.90;99.90
1538;DHT22;12022;52.266;10.522;2022-10-16T04:58:04;14.90;99.90
1538;DHT22;12022;52.266;10.522;2022-10-16T05:00:31;14.90;99.90
1538;DHT22;12022;52.266;10.522;2022-10-16T05:02:58;14.90;99.90
1538;DHT22;12022;52.266;10.522;2022-10-16T05:05:27;14.90;99.90
1538;DHT22;12022;52.266;10.522;2022-10-16T05:07:54;14.90;99.90
1538;DHT22;12022;52.266;10.522;2022-10-16T05:10:21;14.90;99.90
1538;DHT22;12022;52.266;10.522;2022-10-16T05:12:48;14.90;99.90
1538;DHT22;12022;52.266;10.522;2022-10-16T05:15:15;14.90;99.90
1538;DHT22;12022;52.266;10.522;2022-10-16T05:17:42;14.90;99.90
1538;DHT22;12022;52.266;10.522;2022-10-16T05:20:12;15.00;99.90
1538;DHT22;12022;52.266;10.522;2022-10-16T05:22:39;15.00;99.90
1538;DHT22;12022;52.266;10.522;2022-10-16T05:25:06;15.00;99.90
1538;DHT22;12022;52.266;10.522;2022-10-16T05:27:33;15.00;99.90
1538;DHT22;12022;52.266;10.522;2022-10-16T05:30:00;15.00;99.90
1538;DHT22;12022;52.266;10.522;2022-10-16T05:32:27;15.10;99.90
1538;DHT22;12022;52.266;10.522;2022-10-16T05:34:54;15.10;99.90
1538;DHT22;12022;52.266;10.522;2022-10-16T05:37:21;15.10;99.90
1538;DHT22;12022;52.266;10.522;2022-10-16T05:39:48;15.10;99.90
1538;DHT22;12022;52.266;10.522;2022-10-16T05:42:15;15.20;99.90
1538;DHT22;12022;52.266;10.522;2022-10-16T05:44:43;15.10;99.90
1538;DHT22;12022;52.266;10.522;2022-10-16T05:47:10;15.10;99.90
1538;DHT22;12022;52.266;10.522;2022-10-16T05:49:38;15.00;99.90
1538;DHT22;12022;52.266;10.522;2022-10-16T05:52:07;15.00;99.90
1538;DHT22;12022;52.266;10.522;2022-10-16T05:54:34;15.00;99.90
1538;DHT22;12022;52.266;10.522;2022-10-16T05:57:01;15.00;99.90
1538;DHT22;12022;52.266;10.522;2022-10-16T05:59:28;15.00;99.90
1538;DHT22;12022;52.266;10.522;2022-10-16T06:01:55;15.00;99.90
1538;DHT22;12022;52.266;10.522;2022-10-16T06:04:22;15.00;99.90
1538;DHT22;12022;52.266;10.522;2022-10-16T06:06:49;15.00;99.90
1538;DHT22;12022;52.266;10.522;2022-10-16T06:09:16;15.00;99.90
1538;DHT22;12022;52.266;10.522;2022-10-16T06:11:44;15.00;99.90
1538;DHT22;12022;52.266;10.522;2022-10-16T06:14:10;15.00;99.90
1538;DHT22;12022;52.266;10.522;2022-10-16T06:16:37;15.10;99.90
1538;DHT22;12022;52.266;10.522;2022-10-16T06:19:04;15.10;99.90
1538;DHT22;12022;52.266;10.522;2022-10-16T06:21:35;15.20;99.90
1538;DHT22;12022;52.266;10.522;2022-10-16T06:24:03;15.20;99.90
1538;DHT22;12022;52.266;10.522;2022-10-16T06:26:30;15.20;99.90
1538;DHT22;12022;52.266;10.522;2022-10-16T06:28:59;15.20;99.90
1538;DHT22;12022;52.266;10.522;2022-10-16T06:31:27;15.20;99.90
1538;DHT22;12022;52.266;10.522;2022-10-16T06:33:57;15.30;99.90
1538;DHT22;12022;52.266;10.522;2022-10-16T06:36:24;15.40;99.90
1538;DHT22;12022;52.266;10.522;2022-10-16T06:38:52;15.50;99.90
1538;DHT22;12022;52.266;10.522;2022-10-16T06:41:21;15.60;99.90
1538;DHT22;12022;52.266;10.522;2022-10-16T06:43:48;15.60;99.90
1538;DHT22;12022;52.266;10.522;2022-10-16T06:46:18;15.70;99.90
1538;DHT22;12022;52.266;10.522;2022-10-16T06:48:46;15.80;99.90
1538;DHT22;12022;52.266;10.522;2022-10-16T06:51:15;15.90;99.90
1538;DHT22;12022;52.266;10.522;2022-10-16T06:53:44;16.00;99.90
1538;DHT22;12022;52.266;10.522;2022-10-16T06:56:30;16.10;99.90
1538;DHT22;12022;52.266;10.522;2022-10-16T06:58:58;16.30;99.90
1538;DHT22;12022;52.266;10.522;2022-10-16T07:01:25;16.40;99.90
1538;DHT22;12022;52.266;10.522;2022-10-16T07:03:53;16.50;99.90
1538;DHT22;12022;52.266;10.522;2022-10-16T07:06:22;16.50;99.90
1538;DHT22;12022;52.266;10.522;2022-10-16T07:08:50;16.60;99.90
1538;DHT22;12022;52.266;10.522;2022-10-16T07:11:20;16.60;99.90
1538;DHT22;12022;52.266;10.522;2022-10-16T07:13:48;16.80;99.90
1538;DHT22;12022;52.266;10.522;2022-10-16T07:16:30;16.80;99.90
1538;DHT22;12022;52.266;10.522;2022-10-16T07:18:58;17.00;99.90
1538;DHT22;12022;52.266;10.522;2022-10-16T07:21:29;17.00;99.90
1538;DHT22;12022;52.266;10.522;2022-10-16T07:23:58;17.10;99.90
1538;DHT22;12022;52.266;10.522;2022-10-16T07:26:27;17.10;99.90
1538;DHT22;12022;52.266;10.522;2022-10-16T07:28:54;17.30;99.90
1538;DHT22;12022;52.266;10.522;2022-10-16T07:31:22;17.30;99.90
1538;DHT22;12022;52.266;10.522;2022-10-16T07:33:50;17.30;99.90
1538;DHT22;12022;52.266;10.522;2022-10-16T07:36:19;17.30;99.90
1538;DHT22;12022;52.266;10.522;2022-10-16T07:38:47;17.30;99.90
1538;DHT22;12022;52.266;10.522;2022-10-16T07:41:17;17.40;99.90
1538;DHT22;12022;52.266;10.522;2022-10-16T07:43:49;17.40;99.90
1538;DHT22;12022;52.266;10.522;2022-10-16T07:46:19;17.50;99.90
1538;DHT22;12022;52.266;10.522;2022-10-16T07:48:53;17.60;99.90
1538;DHT22;12022;52.266;10.522;2022-10-16T07:52:06;17.60;99.90
1538;DHT22;12022;52.266;10.522;2022-10-16T07:55:08;17.80;99.90
1538;DHT22;12022;52.266;10.522;2022-10-16T07:57:43;17.80;99.90
1538;DHT22;12022;52.266;10.522;2022-10-16T08:03:37;17.70;99.90
1538;DHT22;12022;52.266;10.522;2022-10-16T08:06:21;17.60;99.90
1538;DHT22;12022;52.266;10.522;2022-10-16T08:23:48;18.10;99.90
1538;DHT22;12022;52.266;10.522;2022-10-16T08:26:24;18.10;99.90
1538;DHT22;12022;52.266;10.522;2022-10-16T08:28:51;18.10;99.90
1538;DHT22;12022;52.266;10.522;2022-10-16T08:31:21;18.00;99.90
1538;DHT22;12022;52.266;10.522;2022-10-16T08:33:48;18.00;99.90
1538;DHT22;12022;52.266;10.522;2022-10-16T08:36:16;17.90;99.90
1538;DHT22;12022;52.266;10.522;2022-10-16T08:38:43;18.00;99.90
1538;DHT22;12022;52.266;10.522;2022-10-16T08:41:17;18.00;99.90
1538;DHT22;12022;52.266;10.522;2022-10-16T08:43:55;18.00;99.90
1538;DHT22;12022;52.266;10.522;2022-10-16T08:49:24;18.10;99.90
1538;DHT22;12022;52.266;10.522;2022-10-16T08:51:52;18.10;99.90
1538;DHT22;12022;52.266;10.522;2022-10-16T08:54:37;18.20;99.90
1538;DHT22;12022;52.266;10.522;2022-10-16T08:57:20;18.20;99.90
1538;DHT22;12022;52.266;10.522;2022-10-16T08:59:51;18.10;99.90
1538;DHT22;12022;52.266;10.522;2022-10-16T09:02:42;18.10;99.90
1538;DHT22;12022;52.266;10.522;2022-10-16T09:10:57;18.20;99.90
1538;DHT22;12022;52.266;10.522;2022-10-16T09:19:39;18.50;99.90
1538;DHT22;12022;52.266;10.522;2022-10-16T09:22:26;18.60;99.90
1538;DHT22;12022;52.266;10.522;2022-10-16T09:25:54;18.70;99.90
1538;DHT22;12022;52.266;10.522;2022-10-16T09:33:22;19.00;99.90
1538;DHT22;12022;52.266;10.522;2022-10-16T09:36:13;19.00;99.90
1538;DHT22;12022;52.266;10.522;2022-10-16T09:38:41;19.10;99.90
1538;DHT22;12022;52.266;10.522;2022-10-16T09:41:21;19.10;99.90
1538;DHT22;12022;52.266;10.522;2022-10-16T09:43:58;19.20;99.90
1538;DHT22;12022;52.266;10.522;2022-10-16T09:46:28;19.10;99.90
1538;DHT22;12022;52.266;10.522;2022-10-16T09:48:58;19.00;99.90
1538;DHT22;12022;52.266;10.522;2022-10-16T09:51:31;19.10;99.90
1538;DHT22;12022;52.266;10.522;2022-10-16T09:54:13;19.10;99.90
1538;DHT22;12022;52.266;10.522;2022-10-16T09:56:44;19.00;99.90
1538;DHT22;12022;52.266;10.522;2022-10-16T09:59:20;19.00;99.90
1538;DHT22;12022;52.266;10.522;2022-10-16T10:01:52;18.90;99.90
1538;DHT22;12022;52.266;10.522;2022-10-16T10:04:24;18.80;99.90
1538;DHT22;12022;52.266;10.522;2022-10-16T10:06:56;18.70;99.90
1538;DHT22;12022;52.266;10.522;2022-10-16T10:09:27;18.70;99.90
1538;DHT22;12022;52.266;10.522;2022-10-16T10:11:57;18.70;99.90
1538;DHT22;12022;52.266;10.522;2022-10-16T10:19:40;18.70;99.90
1538;DHT22;12022;52.266;10.522;2022-10-16T10:22:30;18.70;99.90
1538;DHT22;12022;52.266;10.522;2022-10-16T10:28:03;18.90;99.90
1538;DHT22;12022;52.266;10.522;2022-10-16T10:41:56;19.20;99.90
1538;DHT22;12022;52.266;10.522;2022-10-16T10:50:33;19.10;99.90
1538;DHT22;12022;52.266;10.522;2022-10-16T10:53:18;19.30;99.90
1538;DHT22;12022;52.266;10.522;2022-10-16T11:01:16;19.40;99.90
1538;DHT22;12022;52.266;10.522;2022-10-16T11:06:41;19.40;99.90
1538;DHT22;12022;52.266;10.522;2022-10-16T11:09:18;19.40;99.90
1538;DHT22;12022;52.266;10.522;2022-10-16T11:11:53;19.40;99.90
1538;DHT22;12022;52.266;10.522;2022-10-16T11:17:23;19.40;99.90
1538;DHT22;12022;52.266;10.522;2022-10-16T11:22:46;19.30;99.90
1538;DHT22;12022;52.266;10.522;2022-10-16T11:25:32;19.10;99.90
1538;DHT22;12022;52.266;10.522;2022-10-16T11:28:16;19.10;99.90
1538;DHT22;12022;52.266;10.522;2022-10-16T11:30:50;19.10;99.90
1538;DHT22;12022;52.266;10.522;2022-10-16T11:33:43;19.00;99.90
1538;DHT22;12022;52.266;10.522;2022-10-16T11:36:19;19.00;99.90
1538;DHT22;12022;52.266;10.522;2022-10-16T11:50:13;19.00;99.90
1538;DHT22;12022;52.266;10.522;2022-10-16T11:55:42;19.10;99.90
1538;DHT22;12022;52.266;10.522;2022-10-16T12:01:22;19.10;99.90
1538;DHT22;12022;52.266;10.522;2022-10-16T12:04:00;19.20;99.90
1538;DHT22;12022;52.266;10.522;2022-10-16T12:07:24;19.20;99.90
1538;DHT22;12022;52.266;10.522;2022-10-16T12:09:43;19.20;99.90
1538;DHT22;12022;52.266;10.522;2022-10-16T12:15:23;19.40;99.90
1538;DHT22;12022;52.266;10.522;2022-10-16T12:18:22;19.40;99.90
1538;DHT22;12022;52.266;10.522;2022-10-16T12:20:57;19.50;99.90
1538;DHT22;12022;52.266;10.522;2022-10-16T12:23:56;19.60;99.90
1538;DHT22;12022;52.266;10.522;2022-10-16T12:26:33;19.60;99.90
1538;DHT22;12022;52.266;10.522;2022-10-16T12:31:48;20.10;99.90
1538;DHT22;12022;52.266;10.522;2022-10-16T12:37:11;20.10;99.90
1538;DHT22;12022;52.266;10.522;2022-10-16T12:39:43;20.00;99.90
1538;DHT22;12022;52.266;10.522;2022-10-16T12:44:57;19.80;99.90
1538;DHT22;12022;52.266;10.522;2022-10-16T12:47:37;19.80;99.90
1538;DHT22;12022;52.266;10.522;2022-10-16T12:52:53;19.60;99.90
1538;DHT22;12022;52.266;10.522;2022-10-16T12:55:22;19.50;99.90
1538;DHT22;12022;52.266;10.522;2022-10-16T13:04:03;19.40;99.90
1538;DHT22;12022;52.266;10.522;2022-10-16T13:19:25;19.10;99.90
1538;DHT22;12022;52.266;10.522;2022-10-16T13:21:35;19.10;99.90
1538;DHT22;12022;52.266;10.522;2022-10-16T13:27:05;19.00;99.90
1538;DHT22;12022;52.266;10.522;2022-10-16T13:29:32;19.00;99.90
1538;DHT22;12022;52.266;10.522;2022-10-16T13:32:06;19.00;99.90
1538;DHT22;12022;52.266;10.522;2022-10-16T13:34:45;19.00;99.90
1538;DHT22;12022;52.266;10.522;2022-10-16T13:37:18;19.00;99.90
1538;DHT22;12022;52.266;10.522;2022-10-16T13:39:45;19.00;99.90
1538;DHT22;12022;52.266;10.522;2022-10-16T13:42:26;19.00;99.90
1538;DHT22;12022;52.266;10.522;2022-10-16T13:44:55;19.00;99.90
1538;DHT22;12022;52.266;10.522;2022-10-16T13:47:27;19.00;99.90
1538;DHT22;12022;52.266;10.522;2022-10-16T13:50:04;19.00;99.90
1538;DHT22;12022;52.266;10.522;2022-10-16T13:52:32;19.00;99.90
1538;DHT22;12022;52.266;10.522;2022-10-16T13:54:59;19.10;99.90
1538;DHT22;12022;52.266;10.522;2022-10-16T13:57:28;19.10;99.90
1538;DHT22;12022;52.266;10.522;2022-10-16T13:59:55;19.10;99.90
1538;DHT22;12022;52.266;10.522;2022-10-16T14:04:57;19.20;99.90
1538;DHT22;12022;52.266;10.522;2022-10-16T14:07:32;19.20;99.90
1538;DHT22;12022;52.266;10.522;2022-10-16T14:10:24;19.20;99.90
1538;DHT22;12022;52.266;10.522;2022-10-16T14:13:04;19.30;99.90
1538;DHT22;12022;52.266;10.522;2022-10-16T14:15:32;19.40;99.90
1538;DHT22;12022;52.266;10.522;2022-10-16T14:18:00;19.50;99.90
1538;DHT22;12022;52.266;10.522;2022-10-16T14:20:31;19.60;99.90
1538;DHT22;12022;52.266;10.522;2022-10-16T14:23:22;19.70;99.90
1538;DHT22;12022;52.266;10.522;2022-10-16T14:25:49;19.70;99.90
1538;DHT22;12022;52.266;10.522;2022-10-16T14:28:22;19.70;99.90
1538;DHT22;12022;52.266;10.522;2022-10-16T14:31:00;19.70;99.90
1538;DHT22;12022;52.266;10.522;2022-10-16T14:33:32;19.70;99.90
1538;DHT22;12022;52.266;10.522;2022-10-16T14:36:03;19.70;99.90
1538;DHT22;12022;52.266;10.522;2022-10-16T14:38:31;19.80;99.90
1538;DHT22;12022;52.266;10.522;2022-10-16T14:40:59;19.80;99.90
1538;DHT22;12022;52.266;10.522;2022-10-16T14:45:58;19.70;99.90
1538;DHT22;12022;52.266;10.522;2022-10-16T14:48:25;19.60;99.90
1538;DHT22;12022;52.266;10.522;2022-10-16T14:50:56;19.60;99.90
1538;DHT22;12022;52.266;10.522;2022-10-16T14:53:23;19.60;99.90
1538;DHT22;12022;52.266;10.522;2022-10-16T14:55:50;19.50;99.90
1538;DHT22;12022;52.266;10.522;2022-10-16T14:58:20;19.50;99.90
1538;DHT22;12022;52.266;10.522;2022-10-16T15:00:48;19.50;99.90
1538;DHT22;12022;52.266;10.522;2022-10-16T15:03:15;19.50;99.90
1538;DHT22;12022;52.266;10.522;2022-10-16T15:05:45;19.50;99.90
1538;DHT22;12022;52.266;10.522;2022-10-16T15:08:11;19.40;99.90
1538;DHT22;12022;52.266;10.522;2022-10-16T15:10:42;19.40;99.90
1538;DHT22;12022;52.266;10.522;2022-10-16T15:13:13;19.40;99.90
1538;DHT22;12022;52.266;10.522;2022-10-16T15:15:43;19.30;99.90
1538;DHT22;12022;52.266;10.522;2022-10-16T15:18:10;19.30;99.90
1538;DHT22;12022;52.266;10.522;2022-10-16T15:20:38;19.20;99.90
1538;DHT22;12022;52.266;10.522;2022-10-16T15:23:14;19.20;99.90
1538;DHT22;12022;52.266;10.522;2022-10-16T15:28:11;19.00;99.90
1538;DHT22;12022;52.266;10.522;2022-10-16T15:30:39;19.00;99.90
1538;DHT22;12022;52.266;10.522;2022-10-16T15:33:14;18.90;99.90
1538;DHT22;12022;52.266;10.522;2022-10-16T15:35:41;18.90;99.90
1538;DHT22;12022;52.266;10.522;2022-10-16T15:38:12;18.90;99.90
1538;DHT22;12022;52.266;10.522;2022-10-16T15:40:41;18.80;99.90
1538;DHT22;12022;52.266;10.522;2022-10-16T15:43:08;18.80;99.90
1538;DHT22;12022;52.266;10.522;2022-10-16T15:45:35;18.70;99.90
1538;DHT22;12022;52.266;10.522;2022-10-16T15:48:02;18.70;99.90
1538;DHT22;12022;52.266;10.522;2022-10-16T15:50:30;18.70;99.90
1538;DHT22;12022;52.266;10.522;2022-10-16T15:52:57;18.60;99.90
1538;DHT22;12022;52.266;10.522;2022-10-16T15:55:24;18.60;99.90
1538;DHT22;12022;52.266;10.522;2022-10-16T15:57:51;18.50;99.90
1538;DHT22;12022;52.266;10.522;2022-10-16T16:00:19;18.50;99.90
1538;DHT22;12022;52.266;10.522;2022-10-16T16:02:53;18.40;99.90
1538;DHT22;12022;52.266;10.522;2022-10-16T16:05:20;18.30;99.90
1538;DHT22;12022;52.266;10.522;2022-10-16T16:07:48;18.30;99.90
1538;DHT22;12022;52.266;10.522;2022-10-16T16:10:16;18.20;99.90
1538;DHT22;12022;52.266;10.522;2022-10-16T16:12:48;18.20;99.90
1538;DHT22;12022;52.266;10.522;2022-10-16T16:15:20;18.10;99.90
1538;DHT22;12022;52.266;10.522;2022-10-16T16:17:48;18.00;99.90
1538;DHT22;12022;52.266;10.522;2022-10-16T16:20:15;17.90;99.90
1538;DHT22;12022;52.266;10.522;2022-10-16T16:22:42;17.90;99.90
1538;DHT22;12022;52.266;10.522;2022-10-16T16:25:09;17.80;99.90
1538;DHT22;12022;52.266;10.522;2022-10-16T16:27:36;17.70;99.90
1538;DHT22;12022;52.266;10.522;2022-10-16T16:30:06;17.70;99.90
1538;DHT22;12022;52.266;10.522;2022-10-16T16:32:34;17.60;99.90
1538;DHT22;12022;52.266;10.522;2022-10-16T16:35:02;17.60;99.90
1538;DHT22;12022;52.266;10.522;2022-10-16T16:37:29;17.50;99.90
1538;DHT22;12022;52.266;10.522;2022-10-16T16:39:56;17.40;99.90
1538;DHT22;12022;52.266;10.522;2022-10-16T16:42:28;17.40;99.90
1538;DHT22;12022;52.266;10.522;2022-10-16T16:44:55;17.30;99.90
1538;DHT22;12022;52.266;10.522;2022-10-16T16:47:22;17.20;99.90
1538;DHT22;12022;52.266;10.522;2022-10-16T16:49:49;17.20;99.90
1538;DHT22;12022;52.266;10.522;2022-10-16T16:52:16;17.10;99.90
1538;DHT22;12022;52.266;10.522;2022-10-16T16:54:43;17.10;99.90
1538;DHT22;12022;52.266;10.522;2022-10-16T16:57:11;17.00;99.90
1538;DHT22;12022;52.266;10.522;2022-10-16T16:59:38;16.90;99.90
1538;DHT22;12022;52.266;10.522;2022-10-16T17:02:05;16.90;99.90
1538;DHT22;12022;52.266;10.522;2022-10-16T17:04:32;16.80;99.90
1538;DHT22;12022;52.266;10.522;2022-10-16T17:06:59;16.80;99.90
1538;DHT22;12022;52.266;10.522;2022-10-16T17:09:26;16.70;99.90
1538;DHT22;12022;52.266;10.522;2022-10-16T17:11:53;16.70;99.90
1538;DHT22;12022;52.266;10.522;2022-10-16T17:14:20;16.60;99.90
1538;DHT22;12022;52.266;10.522;2022-10-16T17:16:47;16.60;99.90
1538;DHT22;12022;52.266;10.522;2022-10-16T17:19:17;16.50;99.90
1538;DHT22;12022;52.266;10.522;2022-10-16T17:21:47;16.50;99.90
1538;DHT22;12022;52.266;10.522;2022-10-16T17:24:14;16.40;99.90
1538;DHT22;12022;52.266;10.522;2022-10-16T17:26:41;16.40;99.90
1538;DHT22;12022;52.266;10.522;2022-10-16T17:29:16;16.40;99.90
1538;DHT22;12022;52.266;10.522;2022-10-16T17:31:44;16.30;99.90
1538;DHT22;12022;52.266;10.522;2022-10-16T17:34:11;16.30;99.90
1538;DHT22;12022;52.266;10.522;2022-10-16T17:36:39;16.30;99.90
1538;DHT22;12022;52.266;10.522;2022-10-16T17:39:12;16.30;99.90
1538;DHT22;12022;52.266;10.522;2022-10-16T17:41:39;16.30;99.90
1538;DHT22;12022;52.266;10.522;2022-10-16T17:44:07;16.30;99.90
1538;DHT22;12022;52.266;10.522;2022-10-16T17:46:34;16.50;99.90
1538;DHT22;12022;52.266;10.522;2022-10-16T17:49:08;16.30;99.90
1538;DHT22;12022;52.266;10.522;2022-10-16T17:51:35;16.40;99.90
1538;DHT22;12022;52.266;10.522;2022-10-16T17:54:02;16.40;99.90
1538;DHT22;12022;52.266;10.522;2022-10-16T17:56:29;16.40;99.90
1538;DHT22;12022;52.266;10.522;2022-10-16T17:58:58;16.50;99.90
1538;DHT22;12022;52.266;10.522;2022-10-16T18:01:28;16.50;99.90
1538;DHT22;12022;52.266;10.522;2022-10-16T18:04:01;16.50;99.90
1538;DHT22;12022;52.266;10.522;2022-10-16T18:06:30;16.50;99.90
1538;DHT22;12022;52.266;10.522;2022-10-16T18:08:58;16.50;99.90
1538;DHT22;12022;52.266;10.522;2022-10-16T18:11:26;16.50;99.90
1538;DHT22;12022;52.266;10.522;2022-10-16T18:13:55;16.50;99.90
1538;DHT22;12022;52.266;10.522;2022-10-16T18:16:22;16.50;99.90
1538;DHT22;12022;52.266;10.522;2022-10-16T18:18:49;16.50;99.90
1538;DHT22;12022;52.266;10.522;2022-10-16T18:21:18;16.50;99.90
1538;DHT22;12022;52.266;10.522;2022-10-16T18:23:46;16.50;99.90
1538;DHT22;12022;52.266;10.522;2022-10-16T18:26:19;16.50;99.90
1538;DHT22;12022;52.266;10.522;2022-10-16T18:28:46;16.50;99.90